Airfield :
LOGIN :

Register | Disclaimer

   EN    FR    IT 

 










Legend :    VFR   Marginal VFR   IFR   Intensive IFR   Very Intensive IFR
Visi :
Ceiling :
>= 8 km
>= 3000ft
5 to 8 km
1000 to 3000 ft
1500m to 5 km
500 to 1000 ft
800 to 1500m
200 to 500 ft
< 800m
< 200 ft
Symbols :   Thunderstorms  Fog  Heavy snow  Heavy precipitations  Wind > 20 kt
SIGMETs :     Misc.  Thunderstorms  Icing  Turbulence  Mountain Waves  Volcanic Ashes







- Airport Elevation : 158 ft
- IATA code : QAR


EHDL - Deelen Airbase

CURRENT METAR :
  • 230455Z AUTO VRB02KT 5000 BR BKN052 BKN057 BKN100 01/01 Q1025 WHT

EXPIRED METARs :
  • 230425Z AUTO 22003KT 6000 BR SCT055 01/01 Q1025 WHT
  • 230355Z AUTO 05002KT 9999 FEW100 02/01 Q1025 BLU
  • 230325Z AUTO 29002KT 9999 OVC062 02/02 Q1025 BLU
  • 230255Z AUTO 33007KT 280V020 9999 FEW005 SCT060 03/02 Q1025 BLU
  • 230225Z AUTO 26004KT 190V320 9999 FEW015CB SCT031 BKN036 03/02 Q1025 BLU

Expired Forecast.
No reported NOTAMs for that airfield.



MET'MAP, your aeronautical weather chart ! - Copyright ORBIFLY December 2007 - Disclaimer

ORBIFLY MET'MAP TEAM :

Programming & Development : Alexandra Zaïnal
Concept & Development : Baudouin d'Aumeries
Co-Development & Prog : Marc-Olivier Méhu
Technical & hardware support : Manuel Goepfert

Contact : metmap@orbifly.com




SOURCES & CREDITS :

   NOAA